EGGD/BRS METAR and TAF weather

Enter ICAO airport designator
Station Type Date Time Source
EGGD METAR 2021/01/22 05:20 UTC NOAA

EGGD 220520Z AUTO 24007KT 9999 NCD 02/02 Q0990


Station Type Date Time Source
EGGD Decoded METAR 2021/01/22 05:20 UTC NOAA

Bristol / Lulsgate , United Kingdom (EGGD) 51-23N 002-43W
Jan 22, 2021 - 12:20 AM EST / 2021.01.22 0520 UTC
Wind: from the WSW (240 degrees) at 8 MPH (7 KT):0
Visibility: greater than 7 mile(s):0
Temperature: 35 F (2 C)
Windchill: 28 F (-2 C):1
Dew Point: 35 F (2 C)
Relative Humidity: 100%
Pressure (altimeter): 29.23 in. Hg (0990 hPa)
ob: EGGD 220520Z AUTO 24007KT 9999 NCD 02/02 Q0990
cycle: 5

Station Type Date Time Source
EGGD TAF 2021/01/22 06:15 UTC NOAA

TAF EGGD 220504Z 2206/2306 23007KT 9999 FEW030 PROB30 2206/2210 6000
TEMPO 2212/2221 7000 SHRA BKN012 PROB40
TEMPO 2213/2218 3000 +SHRA BKN008 BKN022CB PROB30
TEMPO 2218/2221 3000 +SHRA SHRASN BKN006 BKN022CB PROB30 2300/2306 2000 BR BKN003

Example: see airport list